Flight Track Log - Related Links

Times and Time Zones

All times are in EDT time to prevent confusion due to time zone crossing. See the ASQ5312 flight status page for this flight to view local times or setup timezone preferences in your user account.

Time Position Orientation Groundspeed Altitude Reporting Facility
EDT Latitude Longitude Course Direction KTS MPH feet Rate Location/Type
Tue 02:27:15 PM 33.6557 -84.4446 287° West  Level FlightAware Approximate
Tue 02:28:24 PM 33.6833 -84.5500 331° Northwest 243 280 5,700  Level Atlanta TRACON
Tue 02:29:18 PM 33.7333 -84.5833 357° North 259 298 8,400 1,929 Climbing Atlanta TRACON
Tue 02:31:40 PM 33.9286 -84.5944 344° North 295 339 12,000 1,634 Climbing Atlanta Center
Tue 02:32:40 PM 34.0161 -84.6253 342° North 322 371 13,900 1,750 Climbing Atlanta Center
Tue 02:33:40 PM 34.1058 -84.6608 345° North 327 376 15,500 1,350 Climbing Atlanta Center
Tue 02:34:40 PM 34.2017 -84.6919 341° North 345 397 16,600 1,350 Climbing Atlanta Center
Tue 02:35:40 PM 34.2953 -84.7303 339° North 345 397 18,200 1,550 Climbing Atlanta Center
Tue 02:36:40 PM 34.3889 -84.7739 341° North 350 403 19,700 1,350 Climbing Atlanta Center
Tue 02:37:40 PM 34.4828 -84.8125 340° North 350 403 20,900 1,100 Climbing Atlanta Center
Tue 02:38:40 PM 34.5658 -84.8486 339° North 350 403 21,900 1,200 Climbing Atlanta Center
Tue 02:39:40 PM 34.6678 -84.8950 339° North 350 403 23,300 1,700 Climbing Atlanta Center
Tue 02:40:40 PM 34.7572 -84.9364 340° North 350 403 25,300 1,550 Climbing Atlanta Center
Tue 02:41:40 PM 34.8447 -84.9753 340° North 345 397 26,400 1,050 Climbing Atlanta Center
Tue 02:42:40 PM 34.9342 -85.0142 340° North 345 397 27,400 900 Climbing Atlanta Center
Tue 02:43:40 PM 35.0214 -85.0533 339° North 340 391 28,200 800 Climbing Atlanta Center
Tue 02:44:40 PM 35.1108 -85.0950 309° West 340 391 29,000 800 Climbing Atlanta Center
Tue 02:45:40 PM 35.1725 -85.1872 309° West 333 383 29,800 632 Climbing Atlanta Center
Tue 02:47:31 PM 35.2883 -85.3611 309° West 367 422 30,800 526 Climbing Memphis Center
Tue 02:48:31 PM 35.3506 -85.4567 309° West 367 422 31,300 500 Climbing Memphis Center
Tue 02:49:31 PM 35.4150 -85.5550 308° West 367 422 31,800 500 Climbing Memphis Center
Tue 02:50:31 PM 35.4772 -85.6533 307° West 367 422 32,300 500 Climbing Memphis Center
Tue 02:51:31 PM 35.5394 -85.7544 310° West 373 429 32,800 500 Climbing Memphis Center
Tue 02:52:31 PM 35.6056 -85.8528 309° West 373 429 33,300 500 Climbing Memphis Center
Tue 02:53:31 PM 35.6628 -85.9392 311° West 380 437 33,800 500 Climbing Memphis Center
Tue 02:54:31 PM 35.7308 -86.0353 325° Northwest 380 437 34,300 500 Climbing Memphis Center
Tue 02:55:31 PM 35.8106 -86.1053 323° Northwest 352 405 34,800 500 Climbing Memphis Center
Tue 02:56:31 PM 35.8881 -86.1781 318° Northwest 352 405 35,300 500 Climbing Memphis Center
Tue 02:57:31 PM 35.9617 -86.2614 317° Northwest 352 405 35,800 350 Climbing Memphis Center
Tue 02:58:31 PM 36.0397 -86.3525 316° Northwest 359 413 36,000 100 Climbing Memphis Center
Tue 02:59:31 PM 36.1156 -86.4439 316° Northwest 365 420 36,000  Level Memphis Center
Tue 03:00:31 PM 36.1892 -86.5331 317° Northwest 365 420 36,000  Level Memphis Center
Tue 03:01:31 PM 36.2647 -86.6194 316° Northwest 371 427 36,000  Level Memphis Center
Tue 03:02:31 PM 36.3383 -86.7089 315° West 371 427 36,000  Level Memphis Center
Tue 03:03:31 PM 36.4075 -86.7961 319° Northwest 371 427 36,000  Level Memphis Center
Tue 03:04:31 PM 36.4872 -86.8828 315° West 371 427 36,000  Level Memphis Center
Tue 03:05:31 PM 36.5564 -86.9703 315° West 370 426 36,000  Level Memphis Center
Tue 03:06:31 PM 36.6275 -87.0578 316° Northwest 370 426 36,000  Level Memphis Center
Tue 03:07:31 PM 36.7006 -87.1453 316° Northwest 370 426 36,000  Level Memphis Center
Tue 03:08:31 PM 36.7717 -87.2306 316° Northwest 370 426 36,000  Level Memphis Center
Tue 03:09:31 PM 36.8447 -87.3186 314° West 370 426 36,000  Level Memphis Center
Tue 03:10:31 PM 36.9133 -87.4067 316° Northwest 363 418 36,000  Level Memphis Center
Tue 03:11:31 PM 36.9842 -87.4925 316° Northwest 363 418 36,000  Level Memphis Center
Tue 03:12:31 PM 37.0592 -87.5833 315° West 363 418 36,000  Level Memphis Center
Tue 03:13:31 PM 37.1300 -87.6719 316° Northwest 363 418 36,000  Level Memphis Center
Tue 03:14:31 PM 37.1942 -87.7503 315° West 363 418 36,000  Level Memphis Center
Tue 03:15:31 PM 37.2647 -87.8392 315° West 368 423 36,000  Level Memphis Center
Tue 03:19:06 PM 37.5189 -88.1611 316° Northwest 377 434 36,000  Level Kansas City Center
Tue 03:20:06 PM 37.5903 -88.2469 315° West 377 434 36,000  Level Kansas City Center
Tue 03:21:06 PM 37.6639 -88.3403 315° West 372 428 36,000  Level Kansas City Center
Tue 03:22:06 PM 37.7331 -88.4292 314° West 367 422 36,000  Level Kansas City Center
Tue 03:23:06 PM 37.8047 -88.5233 315° West 367 422 36,000  Level Kansas City Center
Tue 03:24:06 PM 37.8781 -88.6150 315° West 367 422 36,000  Level Kansas City Center
Tue 03:25:06 PM 37.9492 -88.7042 314° West 367 422 36,000  Level Kansas City Center
Tue 03:26:06 PM 38.0206 -88.7986 315° West 367 422 36,000  Level Kansas City Center
Tue 03:27:06 PM 38.0939 -88.8908 315° West 367 422 36,000  Level Kansas City Center
Tue 03:28:06 PM 38.1736 -88.9931 315° West 373 429 36,000  Level Kansas City Center
Tue 03:29:06 PM 38.2467 -89.0856 314° West 373 429 36,000  Level Kansas City Center
Tue 03:30:06 PM 38.3175 -89.1783 315° West 373 429 36,000  Level Kansas City Center
Tue 03:31:06 PM 38.3928 -89.2736 314° West 373 429 36,000  Level Kansas City Center
Tue 03:32:06 PM 38.4658 -89.3692 314° West 378 435 36,000  Level Kansas City Center
Tue 03:33:06 PM 38.5386 -89.4650 316° Northwest 373 429 36,000  Level Kansas City Center
Tue 03:34:06 PM 38.6133 -89.5581 315° West 379 436 36,000  Level Kansas City Center
Tue 03:35:06 PM 38.6817 -89.6442 314° West 379 436 36,000  Level Kansas City Center
Tue 03:36:06 PM 38.7611 -89.7506 313° West 384 442 36,000  Level Kansas City Center
Tue 03:37:06 PM 38.8250 -89.8397 314° West 384 442 36,000  Level Kansas City Center
Tue 03:38:06 PM 38.8997 -89.9389 313° West 384 442 36,000  Level Kansas City Center
Tue 03:39:06 PM 38.9767 -90.0464 315° West 384 442 36,000  Level Kansas City Center
Tue 03:40:06 PM 39.0447 -90.1331 313° West 384 442 36,000  Level Kansas City Center
Tue 03:41:06 PM 39.1236 -90.2408 314° West 384 442 36,000  Level Kansas City Center
Tue 03:42:06 PM 39.1914 -90.3306 313° West 384 442 36,000  Level Kansas City Center
Tue 03:43:06 PM 39.2700 -90.4386 313° West 384 442 36,000  Level Kansas City Center
Tue 03:44:06 PM 39.3400 -90.5367 315° West 384 442 36,000  Level Kansas City Center
Tue 03:45:06 PM 39.4164 -90.6344 312° West 384 442 36,000  Level Kansas City Center
Tue 03:46:06 PM 39.4883 -90.7383 313° West 384 442 36,000  Level Kansas City Center
Tue 03:47:06 PM 39.5603 -90.8394 314° West 384 442 36,000  Level Kansas City Center
Tue 03:48:06 PM 39.6364 -90.9406 316° Northwest 389 448 36,000  Level Kansas City Center
Tue 03:49:06 PM 39.7142 -91.0394 313° West 389 448 36,000  Level Kansas City Center
Tue 03:50:06 PM 39.7858 -91.1411 314° West 383 441 36,000  Level Kansas City Center
Tue 03:51:06 PM 39.8639 -91.2456 311° West 383 441 36,000  Level Kansas City Center
Tue 03:52:06 PM 39.9333 -91.3481 314° West 388 447 36,000  Level Kansas City Center
Tue 03:53:06 PM 40.0089 -91.4503 313° West 383 441 36,000  Level Kansas City Center
Tue 03:54:06 PM 40.0844 -91.5556 312° West 389 448 36,000  Level Kansas City Center
Tue 03:55:06 PM 40.1556 -91.6583 314° West 389 448 36,000  Level Kansas City Center
Tue 03:56:06 PM 40.2308 -91.7614 312° West 389 448 36,000 -200 Level Kansas City Center
Tue 03:57:06 PM 40.3042 -91.8672 314° West 389 448 35,600 -700 Descending Kansas City Center
Tue 03:58:06 PM 40.3814 -91.9733 312° West 389 448 34,600 -1,200 Descending Kansas City Center
Tue 03:59:06 PM 40.4500 -92.0744 314° West 398 458 33,200 -1,600 Descending Kansas City Center
Tue 04:00:06 PM 40.5272 -92.1808 313° West 404 465 31,400 -1,900 Descending Kansas City Center
Tue 04:01:06 PM 40.6042 -92.2878 311° West 404 465 29,400 -2,372 Descending Kansas City Center
Tue 04:02:15 PM 40.6956 -92.4256 313° West 399 459 26,300 -2,558 Descending Chicago Center
Tue 04:03:15 PM 40.7639 -92.5219 312° West 381 438 23,900 -2,300 Descending Chicago Center
Tue 04:04:15 PM 40.8258 -92.6128 315° West 370 426 21,700 -2,168 Descending Chicago Center
Tue 04:05:50 PM 40.9464 -92.7750 312° West 381 438 18,300 -2,240 Descending Minneapolis Center
Tue 04:06:45 PM 41.0136 -92.8731 317° Northwest 379 436 16,100 -2,231 Descending Minneapolis Center
Tue 04:07:51 PM 41.0950 -92.9742 331° Northwest 343 395 13,800 -1,985 Descending Minneapolis Center
Tue 04:08:58 PM 41.1764 -93.0342 327° Northwest 312 359 11,700 -1,922 Descending Minneapolis Center
Tue 04:09:59 PM 41.2433 -93.0917 325° Northwest 280 322 9,700 -2,083 Descending Minneapolis Center
Tue 04:10:59 PM 41.3058 -93.1492 318° Northwest 260 299 7,500 -2,087 Descending Minneapolis Center
Tue 04:11:54 PM 41.3539 -93.2069 315° West 260 299 5,700 -1,721 Descending Minneapolis Center
Tue 04:13:01 PM 41.4100 -93.2814 312° West 257 296 4,000 -843 Descending Minneapolis Center
Tue 04:13:55 PM 41.4539 -93.3475 311° West 262 302 4,000  Level Minneapolis Center
Tue 04:14:56 PM 41.5017 -93.4222 310° West 257 296 4,000  Level Minneapolis Center
Tue 04:16:03 PM 41.5517 -93.5025 309° West 266 306 4,000  Level Minneapolis Center
Tue 04:17:16 PM 41.6017 -93.5858 309° West 223 257 4,000  Level Minneapolis Center

Login

Don't have an account? Register now (free) for customized features, flight alerts, and more!